Time;durP1;ratioP1;P1;durP2;ratioP2;P2;SDS_P1;SDS_P2;PMS_P1;PMS_P2;Temp;Humidity;BMP_temperature;BMP_pressure;BME280_temperature;BME280_humidity;BME280_pressure;Samples;Min_cycle;Max_cycle;Signal;HPM_P1;HPM_P2
2022/04/22 00:02:24;;;;;;;19.63;7.40;;;;;;;10.03;66.97;100705.97;5051684;28;20048;-79
2022/04/22 00:04:49;;;;;;;22.10;8.52;;;;;;;10.00;67.49;100715.13;5048271;28;20114;-78
2022/04/22 00:07:15;;;;;;;20.10;8.30;;;;;;;9.96;67.73;100708.25;5068370;28;20032;-78
2022/04/22 00:09:40;;;;;;;22.27;7.95;;;;;;;9.93;67.84;100697.75;5059992;28;20039;-78
2022/04/22 00:12:06;;;;;;;19.98;8.13;;;;;;;9.93;68.39;100701.28;5064738;28;20452;-78
2022/04/22 00:14:31;;;;;;;19.50;7.97;;;;;;;9.89;68.16;100701.63;5056021;28;20447;-78
2022/04/22 00:16:57;;;;;;;20.75;8.32;;;;;;;9.89;67.65;100697.09;5072995;28;20142;-78
2022/04/22 00:19:22;;;;;;;18.58;7.03;;;;;;;9.87;67.88;100704.41;5058909;28;20097;-79
2022/04/22 00:21:48;;;;;;;20.10;8.00;;;;;;;9.86;68.23;100696.47;5049142;28;20056;-79
2022/04/22 00:24:16;;;;;;;23.58;8.48;;;;;;;9.83;68.05;100696.72;5067348;28;20025;-79
2022/04/22 00:26:41;;;;;;;23.90;7.78;;;;;;;9.80;68.41;100690.56;5054744;28;20516;-78
2022/04/22 00:29:07;;;;;;;21.98;9.05;;;;;;;9.79;68.36;100696.94;5064114;28;20039;-78
2022/04/22 00:31:33;;;;;;;20.65;7.78;;;;;;;9.76;68.70;100690.91;5055211;28;20033;-78
2022/04/22 00:33:58;;;;;;;20.02;8.27;;;;;;;9.74;68.83;100685.66;5057068;28;20036;-78
2022/04/22 00:36:23;;;;;;;21.35;8.52;;;;;;;9.70;69.43;100686.84;5061534;28;20110;-78
2022/04/22 00:38:49;;;;;;;20.25;8.07;;;;;;;9.67;69.02;100692.44;5047681;28;20036;-78
2022/04/22 00:41:14;;;;;;;20.15;8.40;;;;;;;9.65;69.21;100683.66;5065437;28;20058;-78
2022/04/22 00:43:52;;;;;;;24.45;9.05;;;;;;;9.60;69.74;100686.66;5067261;28;20035;-78
2022/04/22 00:46:17;;;;;;;22.05;9.57;;;;;;;9.58;69.55;100685.91;5066972;28;20482;-78
2022/04/22 00:48:43;;;;;;;21.35;8.75;;;;;;;9.54;69.67;100683.56;5063971;28;20033;-78
2022/04/22 00:51:10;;;;;;;23.08;8.40;;;;;;;9.50;70.35;100674.00;5055809;28;20031;-78
2022/04/22 00:53:44;;;;;;;22.48;8.25;;;;;;;9.45;70.13;100680.56;5063742;28;20155;-78
2022/04/22 00:56:13;;;;;;;20.33;8.38;;;;;;;9.45;69.86;100677.88;5070598;28;20059;-78
2022/04/22 00:58:41;;;;;;;25.13;9.50;;;;;;;9.45;69.92;100675.19;5059171;28;20025;-79
2022/04/22 01:01:07;;;;;;;21.23;8.55;;;;;;;9.44;70.15;100676.19;5057844;28;20568;-75
2022/04/22 01:03:32;;;;;;;20.27;8.23;;;;;;;9.42;70.30;100667.34;5056286;28;20033;-75
2022/04/22 01:11:32;;;;;;;20.27;8.82;;;;;;;9.34;71.10;100664.38;5057003;28;20063;-75
2022/04/22 01:13:59;;;;;;;21.48;9.02;;;;;;;9.31;71.27;100664.56;5052245;28;20032;-75
2022/04/22 01:16:25;;;;;;;19.73;7.97;;;;;;;9.31;71.54;100661.91;5067838;28;20387;-75
2022/04/22 01:18:51;;;;;;;21.63;8.13;;;;;;;9.32;71.65;100660.09;5068168;28;20035;-75
2022/04/22 01:21:17;;;;;;;22.10;9.18;;;;;;;9.31;71.45;100653.00;5052396;28;20551;-75
2022/04/22 01:23:42;;;;;;;20.48;9.05;;;;;;;9.27;71.63;100655.91;5059235;28;20031;-75
2022/04/22 01:26:08;;;;;;;19.65;8.85;;;;;;;9.24;71.87;100653.44;5069281;28;20047;-75
2022/04/22 01:28:33;;;;;;;21.98;8.90;;;;;;;9.23;72.13;100650.88;5067200;28;20024;-75
2022/04/22 01:30:59;;;;;;;19.80;8.07;;;;;;;9.21;72.09;100648.31;5069325;28;20012;-75
2022/04/22 01:33:25;;;;;;;21.42;9.65;;;;;;;9.22;72.62;100651.84;5057067;28;20494;-75
2022/04/22 01:35:50;;;;;;;25.05;9.90;;;;;;;9.22;72.36;100644.66;5065579;28;20069;-75
2022/04/22 01:38:16;;;;;;;22.40;9.15;;;;;;;9.23;72.63;100645.50;5069705;28;20035;-75
2022/04/22 01:40:41;;;;;;;21.85;9.20;;;;;;;9.24;72.29;100650.75;5059781;28;20072;-75
2022/04/22 01:43:06;;;;;;;25.67;9.77;;;;;;;9.24;72.58;100647.25;5065646;28;20037;-75
2022/04/22 01:45:31;;;;;;;20.67;9.82;;;;;;;9.26;72.58;100645.28;5066706;28;20031;-75
2022/04/22 01:47:57;;;;;;;20.33;8.82;;;;;;;9.29;73.18;100638.84;5079644;28;20368;-75
2022/04/22 01:50:23;;;;;;;25.02;9.75;;;;;;;9.32;73.17;100644.00;5071828;28;20120;-75
2022/04/22 01:52:49;;;;;;;22.10;11.13;;;;;;;9.34;72.66;100652.78;5057078;28;20043;-75
2022/04/22 01:55:14;;;;;;;22.13;11.07;;;;;;;9.34;72.72;100648.28;5057817;28;20359;-75
2022/04/22 01:57:39;;;;;;;22.15;9.77;;;;;;;9.34;72.53;100639.38;5051714;28;20029;-75
2022/04/22 02:00:06;;;;;;;25.00;10.35;;;;;;;9.31;73.06;100642.28;5067774;28;20735;-75
2022/04/22 02:02:31;;;;;;;21.90;9.77;;;;;;;9.29;73.12;100645.06;5058577;28;20052;-75
2022/04/22 02:04:57;;;;;;;21.17;9.30;;;;;;;9.29;72.89;100641.53;5054913;28;20111;-75
2022/04/22 02:07:22;;;;;;;22.63;10.55;;;;;;;9.25;72.97;100643.56;5051339;28;20029;-75
2022/04/22 02:09:47;;;;;;;22.30;9.60;;;;;;;9.23;73.67;100657.09;5061410;28;20067;-75
2022/04/22 02:12:13;;;;;;;22.60;10.43;;;;;;;9.22;73.22;100643.78;5050838;28;20031;-75
2022/04/22 02:14:38;;;;;;;20.55;8.55;;;;;;;9.19;73.64;100644.00;5058565;28;20025;-75
2022/04/22 02:17:04;;;;;;;21.42;10.50;;;;;;;9.17;73.67;100640.59;5069791;28;20079;-75
2022/04/22 02:19:29;;;;;;;22.67;10.80;;;;;;;9.13;73.42;100642.63;5056179;28;20037;-75
2022/04/22 02:21:54;;;;;;;24.63;11.27;;;;;;;9.09;73.97;100639.31;5054081;28;20059;-75
2022/04/22 02:24:20;;;;;;;21.42;10.38;;;;;;;9.07;73.99;100641.22;5051601;28;20480;-75
2022/04/22 02:29:29;;;;;;;22.17;10.30;;;;;;;9.00;74.78;100639.94;5057069;28;20055;-75
2022/04/22 02:31:54;;;;;;;24.35;10.77;;;;;;;9.01;74.75;100644.34;5063228;28;20411;-75
2022/04/22 02:34:20;;;;;;;23.55;10.98;;;;;;;9.02;74.83;100637.16;5062206;28;20032;-75
2022/04/22 02:36:46;;;;;;;28.85;10.45;;;;;;;9.03;74.99;100641.53;5067368;28;20063;-75
2022/04/22 02:39:12;;;;;;;24.00;10.27;;;;;;;9.03;74.74;100634.34;5065445;28;20049;-75
2022/04/22 02:47:05;;;;;;;22.73;10.65;;;;;;;9.07;75.09;100625.13;5063056;28;20399;-75
2022/04/22 02:49:30;;;;;;;22.38;10.65;;;;;;;9.09;75.13;100630.38;5048468;28;20041;-75
2022/04/22 02:51:56;;;;;;;24.35;11.55;;;;;;;9.06;74.72;100622.56;5063074;28;20028;-75
2022/04/22 02:54:21;;;;;;;21.90;10.88;;;;;;;9.01;74.88;100622.03;5056273;28;20051;-75
2022/04/22 02:56:50;;;;;;;23.77;10.98;;;;;;;8.96;74.91;100626.84;5056807;28;20032;-75
2022/04/22 02:59:17;;;;;;;21.83;11.07;;;;;;;8.94;75.46;100626.97;5067361;28;20036;-75
2022/04/22 03:01:43;;;;;;;22.65;10.55;;;;;;;8.88;75.34;100622.88;5053390;28;20480;-75
2022/04/22 03:04:09;;;;;;;23.45;11.40;;;;;;;8.84;75.58;100626.75;5049445;28;20032;-75
2022/04/22 03:06:34;;;;;;;22.70;10.18;;;;;;;8.82;75.88;100619.81;5052434;28;20154;-75
2022/04/22 03:08:59;;;;;;;23.52;11.18;;;;;;;8.80;76.24;100624.38;5058969;28;21831;-75
2022/04/22 03:11:25;;;;;;;22.55;10.20;;;;;;;8.77;76.03;100613.88;5064542;28;20040;-75
2022/04/22 03:13:51;;;;;;;23.10;10.93;;;;;;;8.71;76.55;100620.53;5059357;28;20025;-75
2022/04/22 03:16:20;;;;;;;24.75;10.77;;;;;;;8.68;76.71;100616.25;5066931;28;20028;-75
2022/04/22 03:18:45;;;;;;;23.90;11.10;;;;;;;8.65;76.62;100613.75;5062216;28;20025;-75
2022/04/22 03:21:10;;;;;;;25.10;11.80;;;;;;;8.61;76.79;100608.72;5054444;28;20060;-75
2022/04/22 03:23:36;;;;;;;22.45;9.98;;;;;;;8.55;77.17;100610.00;5067479;28;20512;-75
2022/04/22 03:26:01;;;;;;;23.88;11.07;;;;;;;8.49;77.38;100611.31;5066447;28;20032;-75
2022/04/22 03:28:26;;;;;;;24.13;10.63;;;;;;;8.43;77.37;100617.03;5048363;28;20033;-75
2022/04/22 03:30:52;;;;;;;23.55;11.15;;;;;;;8.39;77.69;100607.50;5059109;28;20020;-75
2022/04/22 03:33:18;;;;;;;24.95;10.93;;;;;;;8.33;77.96;100613.25;5056854;28;20369;-75
2022/04/22 03:35:44;;;;;;;24.17;11.68;;;;;;;8.27;78.10;100614.53;5067514;28;20048;-75
2022/04/22 03:38:11;;;;;;;22.48;10.95;;;;;;;8.24;78.50;100612.06;5063333;28;20025;-75
2022/04/22 03:40:36;;;;;;;23.52;12.20;;;;;;;8.20;78.31;100606.06;5048714;28;20423;-75
2022/04/22 03:43:01;;;;;;;24.60;11.73;;;;;;;8.17;78.38;100602.72;5050673;28;20029;-75
2022/04/22 03:45:27;;;;;;;26.98;12.02;;;;;;;8.15;79.23;100604.66;5051493;28;20496;-75
2022/04/22 03:47:52;;;;;;;24.95;12.13;;;;;;;8.11;79.22;100613.84;5075129;28;20028;-75
2022/04/22 03:50:17;;;;;;;24.60;12.32;;;;;;;8.10;78.94;100607.66;5056740;28;20027;-75
2022/04/22 03:52:42;;;;;;;24.35;11.45;;;;;;;8.10;79.35;100602.28;5058030;28;20174;-75
2022/04/22 03:55:08;;;;;;;24.98;11.95;;;;;;;8.09;79.23;100594.38;5059221;28;20043;-75
2022/04/22 04:00:18;;;;;;;23.23;11.13;;;;;;;8.05;79.44;100593.69;5067735;28;20137;-75
2022/04/22 04:02:43;;;;;;;24.33;12.13;;;;;;;8.03;79.91;100591.13;5052724;28;20084;-75
2022/04/22 04:05:09;;;;;;;23.52;11.73;;;;;;;8.03;79.71;100595.63;5052780;28;20041;-75
2022/04/22 04:07:34;;;;;;;25.52;12.75;;;;;;;8.03;79.82;100585.78;5063334;28;20025;-75
2022/04/22 04:18:11;;;;;;;24.63;12.73;;;;;;;8.00;80.05;100595.84;5058909;28;20067;-75
2022/04/22 04:23:20;;;;;;;26.42;12.18;;;;;;;7.96;80.06;100589.81;5051171;28;20098;-75
2022/04/22 04:25:47;;;;;;;23.63;12.82;;;;;;;7.94;80.24;100586.41;5057727;28;20410;-75
2022/04/22 04:28:13;;;;;;;25.50;13.05;;;;;;;7.94;80.52;100591.75;5057315;28;20105;-75
2022/04/22 04:30:42;;;;;;;27.08;13.65;;;;;;;7.95;80.42;100585.44;5046357;28;20086;-75
2022/04/22 04:33:08;;;;;;;28.55;13.73;;;;;;;7.97;80.36;100580.84;5057847;28;20024;-74
2022/04/22 04:35:38;;;;;;;27.13;13.93;;;;;;;7.97;80.61;100586.19;5062926;28;20055;-75
2022/04/22 04:38:06;;;;;;;26.00;13.32;;;;;;;7.95;80.61;100588.13;5066920;28;20414;-75
2022/04/22 04:40:32;;;;;;;26.45;13.57;;;;;;;7.94;81.00;100588.22;5057044;28;20041;-75
2022/04/22 04:43:00;;;;;;;26.73;13.60;;;;;;;7.93;80.78;100595.38;5071851;28;20040;-75
2022/04/22 04:45:25;;;;;;;27.75;13.73;;;;;;;7.94;81.20;100593.59;5061425;28;20517;-75
2022/04/22 04:47:51;;;;;;;25.63;13.68;;;;;;;7.97;81.22;100588.88;5067233;28;20061;-75
2022/04/22 04:50:16;;;;;;;28.73;13.55;;;;;;;7.98;81.67;100598.63;5051394;28;20013;-76
2022/04/22 04:52:41;;;;;;;25.38;13.20;;;;;;;7.99;81.59;100589.63;5058720;28;20482;-75
2022/04/22 04:55:09;;;;;;;26.90;14.05;;;;;;;8.02;81.34;100589.44;5070322;28;20090;-75
2022/04/22 04:57:35;;;;;;;26.65;14.52;;;;;;;8.05;81.44;100583.88;5071469;28;20131;-75
2022/04/22 05:00:01;;;;;;;27.65;14.18;;;;;;;8.08;81.23;100584.63;5059598;28;20600;-75
2022/04/22 05:02:26;;;;;;;28.55;14.65;;;;;;;8.09;81.37;100581.00;5064172;28;20506;-75
2022/04/22 05:04:51;;;;;;;27.48;13.13;;;;;;;8.10;81.36;100575.53;5067512;28;20037;-75
2022/04/22 05:07:17;;;;;;;27.80;13.60;;;;;;;8.14;80.99;100581.53;5054723;28;20488;-75
2022/04/22 05:09:42;;;;;;;28.77;15.27;;;;;;;8.15;81.11;100577.91;5069802;28;20031;-75
2022/04/22 05:12:10;;;;;;;26.50;13.48;;;;;;;8.17;81.12;100581.31;5067913;28;20052;-75
2022/04/22 05:14:35;;;;;;;24.83;14.10;;;;;;;8.18;81.52;100577.69;5070917;28;20036;-75
2022/04/22 05:17:01;;;;;;;26.40;14.10;;;;;;;8.19;81.49;100580.25;5073113;28;20020;-75
2022/04/22 05:19:26;;;;;;;26.48;14.25;;;;;;;8.22;81.75;100579.19;5068768;28;20195;-75
2022/04/22 05:21:52;;;;;;;26.95;14.40;;;;;;;8.26;81.40;100583.38;5052052;28;20033;-75
2022/04/22 05:24:17;;;;;;;29.05;14.15;;;;;;;8.27;81.76;100581.56;5052063;28;20395;-75
2022/04/22 05:26:42;;;;;;;31.85;15.23;;;;;;;8.31;81.54;100588.41;5070046;28;20036;-75
2022/04/22 05:32:36;;;;;;;25.83;13.70;;;;;;;8.32;81.57;100582.97;5068765;28;20380;-75
2022/04/22 05:34:37;;;;;;;28.58;14.55;;;;;;;8.39;82.21;100588.78;5063603;28;20406;-75
2022/04/22 05:37:02;;;;;;;28.17;14.68;;;;;;;8.44;81.86;100586.66;5060885;28;20024;-75
2022/04/22 05:39:28;;;;;;;28.25;14.25;;;;;;;8.47;81.73;100585.59;5058328;28;20589;-75
2022/04/22 05:41:53;;;;;;;26.05;14.13;;;;;;;8.52;82.10;100591.47;5069314;28;20111;-75
2022/04/22 05:44:18;;;;;;;25.67;14.55;;;;;;;8.55;81.69;100584.09;5069263;28;20185;-75
2022/04/22 05:46:44;;;;;;;28.17;16.58;;;;;;;8.59;82.43;100592.75;5071011;28;20028;-75
2022/04/22 05:49:09;;;;;;;28.13;15.82;;;;;;;8.64;82.35;100589.75;5067521;28;20520;-75
2022/04/22 05:51:34;;;;;;;28.98;15.57;;;;;;;8.68;81.87;100593.94;5055996;28;20331;-75
2022/04/22 05:53:59;;;;;;;31.95;16.60;;;;;;;8.74;81.99;100590.84;5055088;28;20044;-75
2022/04/22 05:56:24;;;;;;;29.17;15.70;;;;;;;8.79;81.71;100588.72;5055839;28;20036;-75
2022/04/22 05:58:50;;;;;;;27.45;16.08;;;;;;;8.82;82.00;100587.63;5066188;28;20036;-75
2022/04/22 06:01:15;;;;;;;28.20;16.08;;;;;;;8.86;81.83;100589.16;5061110;28;20428;-75
2022/04/22 06:03:40;;;;;;;28.25;17.25;;;;;;;8.90;82.55;100598.66;5056127;28;20061;-76
2022/04/22 06:06:06;;;;;;;31.98;17.85;;;;;;;8.95;82.65;100587.63;5065633;28;20033;-75
2022/04/22 06:11:15;;;;;;;33.38;17.90;;;;;;;9.06;82.76;100593.94;5057458;28;20098;-75
2022/04/22 06:13:41;;;;;;;28.40;16.55;;;;;;;9.12;82.25;100589.94;5062771;28;20059;-75
2022/04/22 06:16:06;;;;;;;32.90;18.83;;;;;;;9.17;82.43;100592.31;5059993;28;20086;-75
2022/04/22 06:18:31;;;;;;;30.65;18.98;;;;;;;9.21;82.50;100583.94;5063468;28;20397;-75
2022/04/22 06:20:57;;;;;;;33.42;19.27;;;;;;;9.26;82.09;100591.66;5058459;28;20033;-75
2022/04/22 06:23:22;;;;;;;31.73;18.55;;;;;;;9.31;81.92;100589.47;5060198;28;20102;-75
2022/04/22 06:25:48;;;;;;;31.60;19.83;;;;;;;9.37;82.51;100582.81;5065071;28;20778;-75
2022/04/22 06:28:13;;;;;;;33.08;18.95;;;;;;;9.41;81.82;100584.31;5060194;28;20786;-75
2022/04/22 06:30:40;;;;;;;30.48;18.05;;;;;;;9.47;81.98;100583.88;5063667;28;20029;-75
2022/04/22 06:33:07;;;;;;;31.73;18.80;;;;;;;9.53;82.35;100591.50;5058380;28;20035;-75
2022/04/22 06:35:32;;;;;;;28.73;18.15;;;;;;;9.59;81.85;100593.72;5058082;28;20135;-75
2022/04/22 06:38:00;;;;;;;31.25;18.55;;;;;;;9.65;81.57;100589.72;5059373;28;20046;-75
2022/04/22 06:45:54;;;;;;;31.83;19.63;;;;;;;9.82;81.01;100591.16;5057490;28;20054;-75
2022/04/22 06:48:34;;;;;;;32.35;18.95;;;;;;;9.88;80.58;100588.03;5063664;28;20021;-75
2022/04/22 06:51:01;;;;;;;32.17;18.63;;;;;;;9.92;80.39;100584.13;5059341;28;20029;-76
2022/04/22 06:53:28;;;;;;;33.67;18.65;;;;;;;9.94;80.48;100586.69;5067573;28;20024;-75
2022/04/22 06:55:55;;;;;;;32.17;19.90;;;;;;;9.98;80.13;100588.19;5079600;28;20115;-75
2022/04/22 06:58:21;;;;;;;30.08;18.33;;;;;;;10.01;80.73;100590.63;5065632;28;20012;-76
2022/04/22 07:00:48;;;;;;;28.83;17.75;;;;;;;10.06;80.17;100593.84;5065403;28;20038;-76
2022/04/22 07:03:15;;;;;;;30.75;16.90;;;;;;;10.09;79.32;100587.38;5072625;28;20452;-76
2022/04/22 07:05:42;;;;;;;27.95;18.50;;;;;;;10.14;79.60;100583.34;5087192;28;20059;-76
2022/04/22 07:08:13;;;;;;;31.02;17.40;;;;;;;10.21;79.35;100585.59;5080939;28;20028;-75
2022/04/22 07:10:39;;;;;;;30.02;19.10;;;;;;;10.27;78.89;100593.19;5067898;28;20085;-76
2022/04/22 07:13:05;;;;;;;28.45;18.17;;;;;;;10.32;79.65;100591.00;5067910;28;20044;-76
2022/04/22 07:15:31;;;;;;;28.67;18.02;;;;;;;10.35;78.72;100585.41;5061814;28;20806;-76
2022/04/22 07:17:56;;;;;;;30.63;18.65;;;;;;;10.40;79.02;100577.88;5065136;28;20036;-75
2022/04/22 07:20:22;;;;;;;32.13;18.65;;;;;;;10.47;78.70;100579.09;5067631;28;20092;-76
2022/04/22 07:22:48;;;;;;;30.58;18.00;;;;;;;10.56;79.04;100566.78;5088110;28;20456;-76
2022/04/22 07:25:14;;;;;;;28.33;17.95;;;;;;;10.63;78.89;100572.53;5088859;28;20222;-76
2022/04/22 07:27:42;;;;;;;30.27;19.77;;;;;;;10.66;77.87;100575.84;5088686;28;20024;-76
2022/04/22 07:30:09;;;;;;;28.67;16.92;;;;;;;10.70;77.69;100572.91;5077273;28;20104;-76
2022/04/22 07:32:39;;;;;;;32.28;18.10;;;;;;;10.74;77.87;100563.63;5067805;28;20028;-76
2022/04/22 07:35:08;;;;;;;30.23;18.88;;;;;;;10.81;78.07;100557.66;5064339;28;20077;-76
2022/04/22 07:37:35;;;;;;;32.90;18.77;;;;;;;10.88;77.57;100563.41;5063606;28;20175;-76
2022/04/22 07:40:01;;;;;;;28.90;17.17;;;;;;;10.90;77.00;100564.13;5063076;28;20041;-76
2022/04/22 07:42:28;;;;;;;29.90;17.92;;;;;;;10.95;76.55;100563.75;5064110;28;20086;-76
2022/04/22 07:47:42;;;;;;;30.30;17.25;;;;;;;11.01;76.83;100568.66;5068040;28;20071;-75
2022/04/22 07:50:07;;;;;;;27.92;17.77;;;;;;;11.06;76.68;100561.09;5060964;28;20100;-75
2022/04/22 07:52:34;;;;;;;30.73;16.80;;;;;;;11.09;75.78;100560.84;5046646;28;20484;-75
2022/04/22 07:55:00;;;;;;;27.17;16.63;;;;;;;11.11;74.89;100558.88;5067742;28;20059;-77
2022/04/22 07:57:30;;;;;;;27.25;15.98;;;;;;;11.16;75.33;100564.75;5060318;28;20029;-76
2022/04/22 07:59:55;;;;;;;;;;;;;;;11.29;75.75;100559.22;5061956;28;20059;-76
2022/04/22 08:02:21;;;;;;;27.35;16.45;;;;;;;11.43;75.76;100562.63;5065480;28;19959;-76
2022/04/22 08:04:46;;;;;;;30.50;18.08;;;;;;;11.53;74.55;100569.81;5069692;28;20048;-77
2022/04/22 08:07:12;;;;;;;28.27;17.60;;;;;;;11.63;75.64;100561.00;5058929;28;20365;-76
2022/04/22 08:09:38;;;;;;;28.42;16.92;;;;;;;11.67;73.49;100562.44;5061497;28;20040;-76
2022/04/22 08:12:03;;;;;;;28.20;16.63;;;;;;;11.75;74.17;100559.13;5069194;28;20030;-76
2022/04/22 08:14:29;;;;;;;27.17;16.42;;;;;;;11.85;74.93;100560.91;5071844;28;20029;-76
2022/04/22 08:16:55;;;;;;;30.90;17.38;;;;;;;11.95;74.66;100560.16;5070226;28;20414;-76
2022/04/22 08:19:20;;;;;;;28.95;15.70;;;;;;;12.00;73.17;100561.50;5073644;28;20056;-76
2022/04/22 08:21:46;;;;;;;26.58;16.25;;;;;;;12.02;72.92;100556.84;5070172;28;20059;-77
2022/04/22 08:24:12;;;;;;;30.83;16.52;;;;;;;12.03;72.96;100555.84;5067163;28;20039;-77
2022/04/22 08:26:38;;;;;;;26.75;16.02;;;;;;;12.10;72.72;100548.13;5066968;28;20055;-76
2022/04/22 08:29:03;;;;;;;27.80;16.02;;;;;;;12.11;71.71;100555.22;5062926;28;20033;-76
2022/04/22 08:31:29;;;;;;;28.67;16.75;;;;;;;12.09;70.92;100551.78;5074611;28;20028;-77
2022/04/22 08:33:56;;;;;;;27.38;15.77;;;;;;;12.12;72.47;100556.91;5090579;28;20371;-76
2022/04/22 08:36:22;;;;;;;27.95;16.02;;;;;;;12.14;71.92;100559.47;5073908;28;20127;-75
2022/04/22 08:38:47;;;;;;;26.98;16.10;;;;;;;12.17;72.02;100543.09;5072717;28;20029;-77
2022/04/22 08:41:14;;;;;;;26.02;16.25;;;;;;;12.22;71.50;100535.44;5069127;28;20051;-76
2022/04/22 08:43:39;;;;;;;29.58;17.02;;;;;;;12.29;71.04;100525.00;5069651;28;20021;-73
2022/04/22 08:49:58;;;;;;;26.85;15.85;;;;;;;12.33;70.39;100519.22;5063693;28;20511;-76
2022/04/22 08:51:37;;;;;;;28.35;16.55;;;;;;;12.47;70.48;100531.47;5063854;28;20051;-76
2022/04/22 08:54:05;;;;;;;30.15;16.38;;;;;;;12.53;70.32;100533.69;5077991;28;20154;-76
2022/04/22 08:56:33;;;;;;;29.25;16.10;;;;;;;12.66;71.20;100533.44;5073988;28;20032;-76
2022/04/22 08:58:58;;;;;;;27.30;16.13;;;;;;;12.81;73.22;100530.38;5064446;28;20498;-76
2022/04/22 09:01:23;;;;;;;28.80;16.65;;;;;;;12.90;70.26;100524.22;5063197;28;20119;-76
2022/04/22 09:03:49;;;;;;;27.10;15.50;;;;;;;12.96;70.52;100520.09;5061790;28;20040;-76
2022/04/22 09:06:14;;;;;;;28.38;15.75;;;;;;;12.93;70.01;100527.47;5057700;28;20032;-76
2022/04/22 09:08:40;;;;;;;27.13;16.35;;;;;;;12.91;70.88;100532.16;5061925;28;20107;-76
2022/04/22 09:11:05;;;;;;;29.10;15.65;;;;;;;12.88;69.98;100521.63;5056122;28;20567;-76
2022/04/22 09:13:30;;;;;;;30.70;17.17;;;;;;;12.94;70.99;100520.22;5062872;28;20032;-76
2022/04/22 09:15:58;;;;;;;31.00;15.52;;;;;;;12.87;67.75;100525.31;5057674;28;20035;-76
2022/04/22 09:18:26;;;;;;;27.95;16.25;;;;;;;12.85;68.52;100515.66;5057791;28;20451;-76
2022/04/22 09:20:56;;;;;;;27.20;16.52;;;;;;;12.88;68.74;100515.38;5049581;28;20287;-76
2022/04/22 09:23:33;;;;;;;28.75;15.07;;;;;;;13.00;69.88;100511.59;5042715;28;20032;-76
2022/04/22 09:25:59;;;;;;;26.23;14.85;;;;;;;13.07;68.01;100503.81;5060683;28;20434;-76
2022/04/22 09:28:24;;;;;;;27.23;14.68;;;;;;;13.10;67.68;100507.09;5060442;28;20025;-76
2022/04/22 09:31:16;;;;;;;25.00;13.98;;;;;;;13.22;66.96;100505.13;5051310;28;20107;-76
2022/04/22 09:33:41;;;;;;;24.60;13.57;;;;;;;13.32;65.40;100501.59;5053485;28;20044;-76
2022/04/22 09:44:25;;;;;;;26.05;14.18;;;;;;;13.49;64.66;100490.16;5066525;28;20502;-74
2022/04/22 09:47:10;;;;;;;25.77;12.90;;;;;;;13.51;65.30;100485.44;5053812;28;20586;-76
2022/04/22 09:49:40;;;;;;;25.27;13.75;;;;;;;13.49;64.83;100479.34;5042901;28;20208;-76
2022/04/22 09:52:05;;;;;;;24.90;12.95;;;;;;;13.45;64.10;100473.38;5067536;28;20060;-76
2022/04/22 09:54:31;;;;;;;25.55;13.10;;;;;;;13.42;62.99;100479.03;5060241;28;20538;-76
2022/04/22 09:56:58;;;;;;;24.17;13.13;;;;;;;13.44;64.43;100476.22;5063217;28;20655;-76
2022/04/22 09:59:25;;;;;;;24.58;13.00;;;;;;;13.54;64.04;100473.53;5056196;28;20483;-76
2022/04/22 10:01:50;;;;;;;26.42;12.38;;;;;;;13.59;64.13;100461.31;5057293;28;20032;-76
2022/04/22 10:04:17;;;;;;;24.65;12.88;;;;;;;13.62;64.31;100470.97;5065241;28;20510;-76
2022/04/22 10:06:44;;;;;;;23.85;11.93;;;;;;;13.66;62.52;100475.13;5040492;28;20120;-76
2022/04/22 10:09:11;;;;;;;21.92;11.45;;;;;;;13.62;60.76;100461.03;5062654;28;20365;-76
2022/04/22 10:11:38;;;;;;;23.50;10.90;;;;;;;13.61;61.13;100461.16;5064570;28;20539;-76
2022/04/22 10:14:09;;;;;;;22.48;11.88;;;;;;;13.56;59.82;100461.59;5055220;28;20020;-76
2022/04/22 10:16:35;;;;;;;23.55;10.30;;;;;;;13.55;60.26;100462.59;5064348;28;20028;-76
2022/04/22 10:19:01;;;;;;;22.83;10.13;;;;;;;13.52;59.85;100460.16;5084218;28;20027;-76
2022/04/22 10:21:27;;;;;;;22.92;11.65;;;;;;;13.49;60.14;100465.84;5084372;28;20116;-76
2022/04/22 10:23:52;;;;;;;25.38;11.75;;;;;;;13.48;59.85;100452.50;5072518;28;20032;-77
2022/04/22 10:26:18;;;;;;;23.98;11.52;;;;;;;13.53;60.59;100450.22;5071039;28;20391;-76
2022/04/22 10:28:46;;;;;;;23.45;11.10;;;;;;;13.54;61.13;100451.94;5066094;28;20033;-76
2022/04/22 10:31:12;;;;;;;23.00;12.13;;;;;;;13.57;61.90;100449.81;5086190;28;20138;-77
2022/04/22 10:33:43;;;;;;;23.92;12.88;;;;;;;13.62;61.50;100455.63;5085663;28;20035;-76
2022/04/22 10:36:12;;;;;;;27.27;13.88;;;;;;;13.68;61.45;100448.81;5086516;28;20031;-76
2022/04/22 10:38:39;;;;;;;24.83;13.60;;;;;;;13.78;60.78;100446.09;5065099;28;20026;-77
2022/04/22 10:41:19;;;;;;;25.63;12.93;;;;;;;13.91;61.62;100440.38;5065956;28;20134;-77
2022/04/22 10:49:39;;;;;;;26.95;13.18;;;;;;;13.92;61.22;100444.81;5069197;28;20502;-77
2022/04/22 10:52:10;;;;;;;25.33;13.43;;;;;;;13.94;61.34;100432.84;5058921;28;20036;-76
2022/04/22 10:54:52;;;;;;;23.13;13.45;;;;;;;13.94;60.48;100432.84;5064677;28;20040;-77
2022/04/22 10:57:32;;;;;;;23.10;12.98;;;;;;;13.93;59.02;100433.00;5062656;28;20036;-77
2022/04/22 11:00:07;;;;;;;24.63;12.68;;;;;;;13.90;59.49;100431.44;5063567;28;20032;-77
2022/04/22 11:02:37;;;;;;;21.73;11.43;;;;;;;13.90;60.09;100431.44;5060014;28;20039;-77
2022/04/22 11:05:21;;;;;;;25.75;12.38;;;;;;;13.95;59.49;100425.59;5062877;28;20020;-77
2022/04/22 11:07:58;;;;;;;25.88;14.43;;;;;;;14.05;60.47;100431.00;5064200;28;20424;-76
2022/04/22 11:10:45;;;;;;;25.50;13.05;;;;;;;14.12;60.00;100426.72;5065770;28;20032;-76
2022/04/22 11:13:30;;;;;;;25.27;13.55;;;;;;;14.13;58.80;100415.75;5057576;28;20035;-76
2022/04/22 11:16:12;;;;;;;25.15;13.63;;;;;;;14.11;59.55;100420.44;5076134;28;20406;-76
2022/04/22 11:18:40;;;;;;;27.60;13.65;;;;;;;14.11;58.23;100422.28;5073690;28;20399;-76
2022/04/22 11:21:19;;;;;;;25.98;15.07;;;;;;;14.17;59.36;100421.69;5068577;28;20452;-76
2022/04/22 11:23:45;;;;;;;25.15;14.00;;;;;;;14.24;58.21;100412.00;5066012;28;20066;-75
2022/04/22 11:26:14;;;;;;;24.88;13.20;;;;;;;14.29;57.92;100415.13;5060215;28;20060;-76
2022/04/22 11:28:41;;;;;;;24.85;13.45;;;;;;;14.36;58.44;100411.84;5063424;28;20017;-76
2022/04/22 11:31:08;;;;;;;26.02;15.15;;;;;;;14.34;58.08;100410.13;5063172;28;20303;-76
2022/04/22 11:33:40;;;;;;;29.52;14.75;;;;;;;14.23;56.88;100425.69;5086355;28;20074;-76
2022/04/22 11:36:06;;;;;;;24.85;14.35;;;;;;;14.14;59.20;100422.00;5064387;28;20112;-76
2022/04/22 11:38:32;;;;;;;24.17;14.20;;;;;;;14.10;58.49;100420.59;5065720;28;20108;-76
2022/04/22 11:40:57;;;;;;;27.15;14.07;;;;;;;14.06;59.56;100416.50;5065121;28;20056;-76
2022/04/22 11:43:22;;;;;;;28.13;14.60;;;;;;;14.03;59.24;100414.94;5060770;28;20031;-76
2022/04/22 11:45:50;;;;;;;26.70;13.57;;;;;;;13.98;58.25;100415.38;5065601;28;20036;-76
2022/04/22 11:48:23;;;;;;;27.60;13.93;;;;;;;13.98;58.88;100417.19;5048419;28;20028;-76
2022/04/22 11:50:49;;;;;;;24.00;12.70;;;;;;;14.00;58.57;100407.13;5064529;28;20020;-76
2022/04/22 11:53:16;;;;;;;23.45;13.05;;;;;;;14.08;59.84;100404.50;5069081;28;20020;-76
2022/04/22 11:55:42;;;;;;;25.08;13.48;;;;;;;14.15;58.47;100410.19;5064609;28;20102;-76
2022/04/22 11:58:11;;;;;;;25.45;14.60;;;;;;;14.25;58.45;100407.47;5067887;28;20046;-76
2022/04/22 12:06:15;;;;;;;25.98;13.52;;;;;;;14.53;58.11;100394.00;5060560;28;20150;-77
2022/04/22 12:09:00;;;;;;;25.17;13.77;;;;;;;14.60;58.80;100401.34;5083200;28;20540;-77
2022/04/22 12:11:26;;;;;;;24.67;13.80;;;;;;;14.68;57.99;100401.50;5078630;28;20780;-77
2022/04/22 12:13:53;;;;;;;26.77;14.10;;;;;;;14.77;59.06;100388.88;5061451;28;20024;-76
2022/04/22 12:16:20;;;;;;;27.10;14.20;;;;;;;14.84;58.69;100397.25;5059189;28;20029;-77
2022/04/22 12:18:48;;;;;;;23.92;13.23;;;;;;;14.91;56.74;100394.81;5068669;28;20116;-76